sensor_id;sensor_type;location;lat;lon;timestamp;pressure;altitude;pressure_sealevel;temperature;humidity
66560;BME280;53413;49.878;8.142;2022-07-29T00:00:28;99817.53;;;22.11;nan
66560;BME280;53413;49.878;8.142;2022-07-29T00:02:53;99815.41;;;21.95;nan
66560;BME280;53413;49.878;8.142;2022-07-29T00:05:19;99798.81;;;21.81;nan
66560;BME280;53413;49.878;8.142;2022-07-29T00:07:44;99795.13;;;21.73;nan
66560;BME280;53413;49.878;8.142;2022-07-29T00:10:10;99796.81;;;21.74;nan
66560;BME280;53413;49.878;8.142;2022-07-29T00:12:35;99800.03;;;21.67;nan
66560;BME280;53413;49.878;8.142;2022-07-29T00:15:01;99801.16;;;21.65;nan
66560;BME280;53413;49.878;8.142;2022-07-29T00:17:26;99807.72;;;21.61;nan
66560;BME280;53413;49.878;8.142;2022-07-29T00:19:52;99811.63;;;21.57;nan
66560;BME280;53413;49.878;8.142;2022-07-29T00:22:18;99818.19;;;21.52;nan
66560;BME280;53413;49.878;8.142;2022-07-29T00:24:44;99822.94;;;21.49;nan
66560;BME280;53413;49.878;8.142;2022-07-29T00:27:09;99814.09;;;21.48;nan
66560;BME280;53413;49.878;8.142;2022-07-29T00:29:34;99809.88;;;21.46;nan
66560;BME280;53413;49.878;8.142;2022-07-29T00:32:00;99811.25;;;21.40;nan
66560;BME280;53413;49.878;8.142;2022-07-29T00:34:25;99808.84;;;21.37;nan
66560;BME280;53413;49.878;8.142;2022-07-29T00:37:09;99808.13;;;21.35;nan
66560;BME280;53413;49.878;8.142;2022-07-29T00:39:34;99799.06;;;21.37;nan
66560;BME280;53413;49.878;8.142;2022-07-29T00:42:03;99808.03;;;21.36;nan
66560;BME280;53413;49.878;8.142;2022-07-29T00:44:29;99799.47;;;21.33;nan
66560;BME280;53413;49.878;8.142;2022-07-29T00:46:54;99789.16;;;21.18;nan
66560;BME280;53413;49.878;8.142;2022-07-29T00:49:19;99772.59;;;21.15;nan
66560;BME280;53413;49.878;8.142;2022-07-29T00:51:45;99776.44;;;21.01;nan
66560;BME280;53413;49.878;8.142;2022-07-29T00:54:10;99774.31;;;20.95;nan
66560;BME280;53413;49.878;8.142;2022-07-29T00:56:36;99769.22;;;20.91;nan
66560;BME280;53413;49.878;8.142;2022-07-29T00:59:01;99761.78;;;20.85;nan
66560;BME280;53413;49.878;8.142;2022-07-29T01:01:27;99752.34;;;20.81;nan
66560;BME280;53413;49.878;8.142;2022-07-29T01:03:53;99756.41;;;20.75;nan
66560;BME280;53413;49.878;8.142;2022-07-29T01:06:19;99751.81;;;20.66;nan
66560;BME280;53413;49.878;8.142;2022-07-29T01:08:46;99750.25;;;20.64;nan
66560;BME280;53413;49.878;8.142;2022-07-29T01:11:15;99739.75;;;20.62;nan
66560;BME280;53413;49.878;8.142;2022-07-29T01:13:42;99740.59;;;20.63;nan
66560;BME280;53413;49.878;8.142;2022-07-29T01:16:25;99751.34;;;20.61;nan
66560;BME280;53413;49.878;8.142;2022-07-29T01:19:01;99763.13;;;20.58;nan
66560;BME280;53413;49.878;8.142;2022-07-29T01:21:47;99756.50;;;20.53;nan
66560;BME280;53413;49.878;8.142;2022-07-29T01:24:33;99746.03;;;20.40;nan
66560;BME280;53413;49.878;8.142;2022-07-29T01:29:44;99731.53;;;20.11;nan
66560;BME280;53413;49.878;8.142;2022-07-29T01:32:21;99732.16;;;20.04;nan
66560;BME280;53413;49.878;8.142;2022-07-29T01:34:53;99720.09;;;19.99;nan
66560;BME280;53413;49.878;8.142;2022-07-29T01:37:45;99724.81;;;19.96;nan
66560;BME280;53413;49.878;8.142;2022-07-29T01:40:22;99705.00;;;19.89;nan
66560;BME280;53413;49.878;8.142;2022-07-29T01:42:52;99706.84;;;19.88;nan
66560;BME280;53413;49.878;8.142;2022-07-29T01:45:41;99698.34;;;19.83;nan
66560;BME280;53413;49.878;8.142;2022-07-29T01:51:01;99705.41;;;19.73;nan
66560;BME280;53413;49.878;8.142;2022-07-29T01:54:14;99706.03;;;19.65;nan
66560;BME280;53413;49.878;8.142;2022-07-29T01:56:20;99698.44;;;19.49;nan
66560;BME280;53413;49.878;8.142;2022-07-29T01:58:49;99692.19;;;19.38;nan
66560;BME280;53413;49.878;8.142;2022-07-29T02:01:17;99702.59;;;19.30;nan
66560;BME280;53413;49.878;8.142;2022-07-29T02:03:45;99704.53;;;19.17;nan
66560;BME280;53413;49.878;8.142;2022-07-29T02:06:12;99699.34;;;19.04;nan
66560;BME280;53413;49.878;8.142;2022-07-29T02:08:41;99697.84;;;18.88;nan
66560;BME280;53413;49.878;8.142;2022-07-29T02:11:08;99703.06;;;18.79;nan
66560;BME280;53413;49.878;8.142;2022-07-29T02:13:35;99699.91;;;18.73;nan
66560;BME280;53413;49.878;8.142;2022-07-29T02:16:05;99701.81;;;18.71;nan
66560;BME280;53413;49.878;8.142;2022-07-29T02:18:33;99714.00;;;18.63;nan
66560;BME280;53413;49.878;8.142;2022-07-29T02:21:01;99710.97;;;18.56;nan
66560;BME280;53413;49.878;8.142;2022-07-29T02:23:28;99711.34;;;18.51;nan
66560;BME280;53413;49.878;8.142;2022-07-29T02:25:56;99708.88;;;18.37;nan
66560;BME280;53413;49.878;8.142;2022-07-29T02:28:24;99712.25;;;18.27;nan
66560;BME280;53413;49.878;8.142;2022-07-29T02:30:52;99707.72;;;18.17;nan
66560;BME280;53413;49.878;8.142;2022-07-29T02:33:18;99706.72;;;18.06;nan
66560;BME280;53413;49.878;8.142;2022-07-29T02:35:46;99700.34;;;18.09;nan
66560;BME280;53413;49.878;8.142;2022-07-29T02:38:14;99697.72;;;18.20;nan
66560;BME280;53413;49.878;8.142;2022-07-29T02:41:00;99702.44;;;18.17;nan
66560;BME280;53413;49.878;8.142;2022-07-29T02:43:26;99698.22;;;18.14;nan
66560;BME280;53413;49.878;8.142;2022-07-29T02:45:54;99698.44;;;18.11;nan
66560;BME280;53413;49.878;8.142;2022-07-29T02:48:23;99703.13;;;18.07;nan
66560;BME280;53413;49.878;8.142;2022-07-29T02:50:58;99693.97;;;18.11;nan
66560;BME280;53413;49.878;8.142;2022-07-29T02:53:27;99698.81;;;18.18;nan
66560;BME280;53413;49.878;8.142;2022-07-29T02:55:56;99693.13;;;18.11;nan
66560;BME280;53413;49.878;8.142;2022-07-29T02:58:29;99691.03;;;18.03;nan
66560;BME280;53413;49.878;8.142;2022-07-29T03:00:57;99694.03;;;17.98;nan
66560;BME280;53413;49.878;8.142;2022-07-29T03:03:25;99690.44;;;17.87;nan
66560;BME280;53413;49.878;8.142;2022-07-29T03:05:57;99691.75;;;17.81;nan
66560;BME280;53413;49.878;8.142;2022-07-29T03:08:26;99691.81;;;17.68;nan
66560;BME280;53413;49.878;8.142;2022-07-29T03:10:52;99702.22;;;17.58;nan
66560;BME280;53413;49.878;8.142;2022-07-29T03:13:19;99697.59;;;17.49;nan
66560;BME280;53413;49.878;8.142;2022-07-29T03:15:45;99699.09;;;17.40;nan
66560;BME280;53413;49.878;8.142;2022-07-29T03:18:11;99703.28;;;17.31;nan
66560;BME280;53413;49.878;8.142;2022-07-29T03:20:38;99705.53;;;17.25;nan
66560;BME280;53413;49.878;8.142;2022-07-29T03:23:04;99706.81;;;17.19;nan
66560;BME280;53413;49.878;8.142;2022-07-29T03:25:29;99705.44;;;17.13;nan
66560;BME280;53413;49.878;8.142;2022-07-29T03:27:55;99704.91;;;17.08;nan
66560;BME280;53413;49.878;8.142;2022-07-29T03:30:21;99701.97;;;17.00;nan
66560;BME280;53413;49.878;8.142;2022-07-29T03:32:46;99698.78;;;16.95;nan
66560;BME280;53413;49.878;8.142;2022-07-29T03:35:12;99707.84;;;16.90;nan
66560;BME280;53413;49.878;8.142;2022-07-29T03:37:37;99706.72;;;16.95;nan
66560;BME280;53413;49.878;8.142;2022-07-29T03:40:06;99707.47;;;16.97;nan
66560;BME280;53413;49.878;8.142;2022-07-29T03:42:33;99705.75;;;16.96;nan
66560;BME280;53413;49.878;8.142;2022-07-29T03:45:05;99703.09;;;17.08;nan
66560;BME280;53413;49.878;8.142;2022-07-29T03:47:32;99710.63;;;17.15;nan
66560;BME280;53413;49.878;8.142;2022-07-29T03:50:05;99704.47;;;17.14;nan
66560;BME280;53413;49.878;8.142;2022-07-29T03:52:32;99708.91;;;17.14;nan
66560;BME280;53413;49.878;8.142;2022-07-29T03:54:58;99712.63;;;17.11;nan
66560;BME280;53413;49.878;8.142;2022-07-29T03:57:26;99710.94;;;17.10;nan
66560;BME280;53413;49.878;8.142;2022-07-29T03:59:53;99718.03;;;17.10;nan
66560;BME280;53413;49.878;8.142;2022-07-29T04:02:18;99715.50;;;17.08;nan
66560;BME280;53413;49.878;8.142;2022-07-29T04:04:44;99715.69;;;17.05;nan
66560;BME280;53413;49.878;8.142;2022-07-29T04:07:14;99717.84;;;17.00;nan
66560;BME280;53413;49.878;8.142;2022-07-29T04:09:40;99720.56;;;16.98;nan
66560;BME280;53413;49.878;8.142;2022-07-29T04:12:06;99722.38;;;16.98;nan
66560;BME280;53413;49.878;8.142;2022-07-29T04:14:32;99725.03;;;16.98;nan
66560;BME280;53413;49.878;8.142;2022-07-29T04:16:58;99719.75;;;16.98;nan
66560;BME280;53413;49.878;8.142;2022-07-29T04:19:23;99724.72;;;17.02;nan
66560;BME280;53413;49.878;8.142;2022-07-29T04:21:48;99726.41;;;17.03;nan
66560;BME280;53413;49.878;8.142;2022-07-29T04:24:14;99732.22;;;17.08;nan
66560;BME280;53413;49.878;8.142;2022-07-29T04:26:39;99733.81;;;17.11;nan
66560;BME280;53413;49.878;8.142;2022-07-29T04:29:05;99727.13;;;17.18;nan
66560;BME280;53413;49.878;8.142;2022-07-29T04:31:30;99723.41;;;17.21;nan
66560;BME280;53413;49.878;8.142;2022-07-29T04:33:56;99732.00;;;17.25;nan
66560;BME280;53413;49.878;8.142;2022-07-29T04:36:21;99729.13;;;17.28;nan
66560;BME280;53413;49.878;8.142;2022-07-29T04:38:46;99733.03;;;17.35;nan
66560;BME280;53413;49.878;8.142;2022-07-29T04:41:12;99723.69;;;17.42;nan
66560;BME280;53413;49.878;8.142;2022-07-29T04:43:37;99730.25;;;17.49;nan
66560;BME280;53413;49.878;8.142;2022-07-29T04:46:03;99730.13;;;17.51;nan
66560;BME280;53413;49.878;8.142;2022-07-29T04:48:29;99726.19;;;17.57;nan
66560;BME280;53413;49.878;8.142;2022-07-29T04:50:55;99720.44;;;17.63;nan
66560;BME280;53413;49.878;8.142;2022-07-29T04:53:21;99721.72;;;17.70;nan
66560;BME280;53413;49.878;8.142;2022-07-29T04:55:47;99725.38;;;17.80;nan
66560;BME280;53413;49.878;8.142;2022-07-29T04:58:12;99727.34;;;17.90;nan
66560;BME280;53413;49.878;8.142;2022-07-29T05:00:38;99728.38;;;18.00;nan
66560;BME280;53413;49.878;8.142;2022-07-29T05:03:04;99726.63;;;18.12;nan
66560;BME280;53413;49.878;8.142;2022-07-29T05:05:29;99731.97;;;18.23;nan
66560;BME280;53413;49.878;8.142;2022-07-29T05:07:55;99734.81;;;18.33;nan
66560;BME280;53413;49.878;8.142;2022-07-29T05:10:21;99734.94;;;18.43;nan
66560;BME280;53413;49.878;8.142;2022-07-29T05:12:47;99746.91;;;18.60;nan
66560;BME280;53413;49.878;8.142;2022-07-29T05:15:12;99742.25;;;18.75;nan
66560;BME280;53413;49.878;8.142;2022-07-29T05:17:38;99749.28;;;18.87;nan
66560;BME280;53413;49.878;8.142;2022-07-29T05:20:04;99742.78;;;19.03;nan
66560;BME280;53413;49.878;8.142;2022-07-29T05:22:30;99746.31;;;19.15;nan
66560;BME280;53413;49.878;8.142;2022-07-29T05:24:55;99734.47;;;19.30;nan
66560;BME280;53413;49.878;8.142;2022-07-29T05:27:21;99738.78;;;19.43;nan
66560;BME280;53413;49.878;8.142;2022-07-29T05:29:46;99732.25;;;19.58;nan
66560;BME280;53413;49.878;8.142;2022-07-29T05:32:12;99735.47;;;19.73;nan
66560;BME280;53413;49.878;8.142;2022-07-29T05:34:38;99735.72;;;19.93;nan
66560;BME280;53413;49.878;8.142;2022-07-29T05:37:04;99728.75;;;20.13;nan
66560;BME280;53413;49.878;8.142;2022-07-29T05:39:29;99732.28;;;20.35;nan
66560;BME280;53413;49.878;8.142;2022-07-29T05:41:54;99728.63;;;20.57;nan
66560;BME280;53413;49.878;8.142;2022-07-29T05:44:20;99734.44;;;20.83;nan
66560;BME280;53413;49.878;8.142;2022-07-29T05:46:45;99737.34;;;21.11;nan
66560;BME280;53413;49.878;8.142;2022-07-29T05:49:11;99746.56;;;21.38;nan
66560;BME280;53413;49.878;8.142;2022-07-29T05:51:37;99748.47;;;21.57;nan
66560;BME280;53413;49.878;8.142;2022-07-29T05:54:02;99749.41;;;21.87;nan
66560;BME280;53413;49.878;8.142;2022-07-29T05:56:27;99748.00;;;22.12;nan
66560;BME280;53413;49.878;8.142;2022-07-29T05:58:53;99750.28;;;22.47;nan
66560;BME280;53413;49.878;8.142;2022-07-29T06:01:19;99746.47;;;24.18;nan
66560;BME280;53413;49.878;8.142;2022-07-29T06:03:44;99751.59;;;27.90;nan
66560;BME280;53413;49.878;8.142;2022-07-29T06:06:10;99747.53;;;31.12;nan
66560;BME280;53413;49.878;8.142;2022-07-29T06:08:36;99760.22;;;33.55;nan
66560;BME280;53413;49.878;8.142;2022-07-29T06:11:02;99760.47;;;35.68;nan
66560;BME280;53413;49.878;8.142;2022-07-29T06:13:28;99759.53;;;37.36;nan
66560;BME280;53413;49.878;8.142;2022-07-29T06:15:53;99753.06;;;38.29;nan
66560;BME280;53413;49.878;8.142;2022-07-29T06:18:19;99763.00;;;38.86;nan
66560;BME280;53413;49.878;8.142;2022-07-29T06:20:46;99766.94;;;39.35;nan
66560;BME280;53413;49.878;8.142;2022-07-29T06:23:11;99778.19;;;39.61;nan
66560;BME280;53413;49.878;8.142;2022-07-29T06:25:39;99769.47;;;40.19;nan
66560;BME280;53413;49.878;8.142;2022-07-29T06:28:05;99771.75;;;41.07;nan
66560;BME280;53413;49.878;8.142;2022-07-29T06:30:31;99771.19;;;41.95;nan
66560;BME280;53413;49.878;8.142;2022-07-29T06:32:56;99772.03;;;42.00;nan
66560;BME280;53413;49.878;8.142;2022-07-29T06:35:22;99774.47;;;42.64;nan
66560;BME280;53413;49.878;8.142;2022-07-29T06:37:47;99772.00;;;43.44;nan
66560;BME280;53413;49.878;8.142;2022-07-29T06:40:12;99778.50;;;44.43;nan
66560;BME280;53413;49.878;8.142;2022-07-29T06:42:56;99781.00;;;45.42;nan
66560;BME280;53413;49.878;8.142;2022-07-29T06:45:22;99781.28;;;46.17;nan
66560;BME280;53413;49.878;8.142;2022-07-29T06:47:49;99782.00;;;44.83;nan
66560;BME280;53413;49.878;8.142;2022-07-29T06:50:15;99778.00;;;44.36;nan
66560;BME280;53413;49.878;8.142;2022-07-29T06:52:40;99779.91;;;43.66;nan
66560;BME280;53413;49.878;8.142;2022-07-29T06:55:06;99769.16;;;43.64;nan
66560;BME280;53413;49.878;8.142;2022-07-29T06:57:33;99778.91;;;44.26;nan
66560;BME280;53413;49.878;8.142;2022-07-29T06:59:58;99777.41;;;45.17;nan
66560;BME280;53413;49.878;8.142;2022-07-29T07:02:23;99777.81;;;45.73;nan
66560;BME280;53413;49.878;8.142;2022-07-29T07:04:49;99779.97;;;47.03;nan
66560;BME280;53413;49.878;8.142;2022-07-29T07:07:14;99778.56;;;48.16;nan
66560;BME280;53413;49.878;8.142;2022-07-29T07:09:40;99788.19;;;49.13;nan
66560;BME280;53413;49.878;8.142;2022-07-29T07:12:05;99799.03;;;49.41;nan
66560;BME280;53413;49.878;8.142;2022-07-29T07:14:31;99790.06;;;49.79;nan
66560;BME280;53413;49.878;8.142;2022-07-29T07:16:56;99791.91;;;49.08;nan
66560;BME280;53413;49.878;8.142;2022-07-29T07:19:22;99787.59;;;49.60;nan
66560;BME280;53413;49.878;8.142;2022-07-29T07:21:47;99788.25;;;49.48;nan
66560;BME280;53413;49.878;8.142;2022-07-29T07:24:12;99795.63;;;49.53;nan
66560;BME280;53413;49.878;8.142;2022-07-29T07:26:38;99791.50;;;50.68;nan
66560;BME280;53413;49.878;8.142;2022-07-29T07:29:04;99802.41;;;51.21;nan
66560;BME280;53413;49.878;8.142;2022-07-29T07:31:30;99802.66;;;51.58;nan
66560;BME280;53413;49.878;8.142;2022-07-29T07:33:56;99801.66;;;51.96;nan
66560;BME280;53413;49.878;8.142;2022-07-29T07:36:22;99799.09;;;52.37;nan
66560;BME280;53413;49.878;8.142;2022-07-29T07:38:47;99805.34;;;52.80;nan
66560;BME280;53413;49.878;8.142;2022-07-29T07:41:13;99799.75;;;52.92;nan
66560;BME280;53413;49.878;8.142;2022-07-29T07:43:38;99796.72;;;52.85;nan
66560;BME280;53413;49.878;8.142;2022-07-29T07:46:04;99788.03;;;52.41;nan
66560;BME280;53413;49.878;8.142;2022-07-29T07:48:29;99791.59;;;53.00;nan
66560;BME280;53413;49.878;8.142;2022-07-29T07:50:55;99795.53;;;53.23;nan
66560;BME280;53413;49.878;8.142;2022-07-29T07:53:21;99795.84;;;53.75;nan
66560;BME280;53413;49.878;8.142;2022-07-29T07:55:46;99792.47;;;54.42;nan
66560;BME280;53413;49.878;8.142;2022-07-29T07:58:12;99786.06;;;55.10;nan
66560;BME280;53413;49.878;8.142;2022-07-29T08:00:37;99797.66;;;56.26;nan
66560;BME280;53413;49.878;8.142;2022-07-29T08:03:03;99796.13;;;57.09;nan
66560;BME280;53413;49.878;8.142;2022-07-29T08:05:28;99795.13;;;57.52;nan
66560;BME280;53413;49.878;8.142;2022-07-29T08:07:54;99804.34;;;57.48;nan
66560;BME280;53413;49.878;8.142;2022-07-29T08:10:19;99795.28;;;54.42;nan
66560;BME280;53413;49.878;8.142;2022-07-29T08:13:07;99791.56;;;52.04;nan
66560;BME280;53413;49.878;8.142;2022-07-29T08:15:33;99795.41;;;51.99;nan
66560;BME280;53413;49.878;8.142;2022-07-29T08:17:58;99802.81;;;53.53;nan
66560;BME280;53413;49.878;8.142;2022-07-29T08:20:24;99802.41;;;55.59;nan
66560;BME280;53413;49.878;8.142;2022-07-29T08:22:49;99805.81;;;56.81;nan
66560;BME280;53413;49.878;8.142;2022-07-29T08:25:15;99817.91;;;57.73;nan
66560;BME280;53413;49.878;8.142;2022-07-29T08:27:40;99820.47;;;58.72;nan
66560;BME280;53413;49.878;8.142;2022-07-29T08:30:06;99807.53;;;57.81;nan
66560;BME280;53413;49.878;8.142;2022-07-29T08:32:32;99821.06;;;57.68;nan
66560;BME280;53413;49.878;8.142;2022-07-29T08:34:57;99831.91;;;58.42;nan
66560;BME280;53413;49.878;8.142;2022-07-29T08:37:23;99834.72;;;58.42;nan
66560;BME280;53413;49.878;8.142;2022-07-29T08:39:48;99845.00;;;59.27;nan
66560;BME280;53413;49.878;8.142;2022-07-29T08:42:13;99840.81;;;59.77;nan
66560;BME280;53413;49.878;8.142;2022-07-29T08:44:41;99836.84;;;60.11;nan
66560;BME280;53413;49.878;8.142;2022-07-29T08:47:07;99836.50;;;60.48;nan
66560;BME280;53413;49.878;8.142;2022-07-29T08:49:34;99843.34;;;60.80;nan
66560;BME280;53413;49.878;8.142;2022-07-29T08:52:00;99840.69;;;61.58;nan
66560;BME280;53413;49.878;8.142;2022-07-29T08:54:25;99842.47;;;62.01;nan
66560;BME280;53413;49.878;8.142;2022-07-29T08:56:53;99836.47;;;60.77;nan
66560;BME280;53413;49.878;8.142;2022-07-29T08:59:20;99829.41;;;59.55;nan
66560;BME280;53413;49.878;8.142;2022-07-29T09:01:48;99829.19;;;60.47;nan
66560;BME280;53413;49.878;8.142;2022-07-29T09:04:14;99821.81;;;61.19;nan
66560;BME280;53413;49.878;8.142;2022-07-29T09:06:44;99812.59;;;60.93;nan
66560;BME280;53413;49.878;8.142;2022-07-29T09:09:11;99821.88;;;60.93;nan
66560;BME280;53413;49.878;8.142;2022-07-29T09:11:37;99810.63;;;60.50;nan
66560;BME280;53413;49.878;8.142;2022-07-29T09:14:02;99792.31;;;59.75;nan
66560;BME280;53413;49.878;8.142;2022-07-29T09:16:54;99797.97;;;59.60;nan
66560;BME280;53413;49.878;8.142;2022-07-29T09:19:40;99806.34;;;61.41;nan
66560;BME280;53413;49.878;8.142;2022-07-29T09:22:06;99805.75;;;60.65;nan
66560;BME280;53413;49.878;8.142;2022-07-29T09:24:39;99783.69;;;59.24;nan
66560;BME280;53413;49.878;8.142;2022-07-29T09:27:18;99775.81;;;56.93;nan
66560;BME280;53413;49.878;8.142;2022-07-29T09:29:55;99766.53;;;52.91;nan
66560;BME280;53413;49.878;8.142;2022-07-29T09:32:21;99763.13;;;49.22;nan
66560;BME280;53413;49.878;8.142;2022-07-29T09:34:46;99755.69;;;46.39;nan
66560;BME280;53413;49.878;8.142;2022-07-29T09:37:25;99756.94;;;44.45;nan
66560;BME280;53413;49.878;8.142;2022-07-29T09:39:51;99751.59;;;43.45;nan
66560;BME280;53413;49.878;8.142;2022-07-29T09:42:28;99757.72;;;44.16;nan
66560;BME280;53413;49.878;8.142;2022-07-29T09:44:54;99760.34;;;45.91;nan
66560;BME280;53413;49.878;8.142;2022-07-29T09:47:19;99763.88;;;48.87;nan
66560;BME280;53413;49.878;8.142;2022-07-29T09:52:15;99765.75;;;45.20;nan
66560;BME280;53413;49.878;8.142;2022-07-29T09:54:40;99765.16;;;45.04;nan
66560;BME280;53413;49.878;8.142;2022-07-29T09:57:08;99755.19;;;47.35;nan
66560;BME280;53413;49.878;8.142;2022-07-29T09:59:37;99771.56;;;49.83;nan
66560;BME280;53413;49.878;8.142;2022-07-29T10:02:13;99755.47;;;48.38;nan
66560;BME280;53413;49.878;8.142;2022-07-29T10:04:40;99748.97;;;45.93;nan
66560;BME280;53413;49.878;8.142;2022-07-29T10:07:06;99751.75;;;46.12;nan
66560;BME280;53413;49.878;8.142;2022-07-29T10:09:32;99762.94;;;46.96;nan
66560;BME280;53413;49.878;8.142;2022-07-29T10:12:08;99754.94;;;47.45;nan
66560;BME280;53413;49.878;8.142;2022-07-29T10:14:35;99757.94;;;49.38;nan
66560;BME280;53413;49.878;8.142;2022-07-29T10:17:01;99751.59;;;48.16;nan
66560;BME280;53413;49.878;8.142;2022-07-29T10:19:29;99753.09;;;46.29;nan
66560;BME280;53413;49.878;8.142;2022-07-29T10:21:59;99754.56;;;44.63;nan
66560;BME280;53413;49.878;8.142;2022-07-29T10:24:29;99740.75;;;42.98;nan
66560;BME280;53413;49.878;8.142;2022-07-29T10:26:56;99737.88;;;41.96;nan
66560;BME280;53413;49.878;8.142;2022-07-29T10:29:23;99739.22;;;40.94;nan
66560;BME280;53413;49.878;8.142;2022-07-29T10:37:22;99736.50;;;39.86;nan
66560;BME280;53413;49.878;8.142;2022-07-29T10:43:16;99733.84;;;39.69;nan
66560;BME280;53413;49.878;8.142;2022-07-29T10:45:44;99733.25;;;39.17;nan
66560;BME280;53413;49.878;8.142;2022-07-29T10:48:10;99727.53;;;38.40;nan
66560;BME280;53413;49.878;8.142;2022-07-29T10:53:22;99728.88;;;37.05;nan
66560;BME280;53413;49.878;8.142;2022-07-29T10:55:48;99719.88;;;36.69;nan
66560;BME280;53413;49.878;8.142;2022-07-29T10:58:22;99722.22;;;36.65;nan
66560;BME280;53413;49.878;8.142;2022-07-29T11:00:53;99720.13;;;36.55;nan
66560;BME280;53413;49.878;8.142;2022-07-29T11:06:06;99711.09;;;35.88;nan
66560;BME280;53413;49.878;8.142;2022-07-29T11:08:32;99712.78;;;35.59;nan
66560;BME280;53413;49.878;8.142;2022-07-29T11:13:47;99709.66;;;35.43;nan
66560;BME280;53413;49.878;8.142;2022-07-29T11:16:14;99711.09;;;35.27;nan
66560;BME280;53413;49.878;8.142;2022-07-29T11:21:37;99717.31;;;34.53;nan
66560;BME280;53413;49.878;8.142;2022-07-29T11:24:14;99712.88;;;34.78;nan
66560;BME280;53413;49.878;8.142;2022-07-29T11:26:40;99721.09;;;34.96;nan
66560;BME280;53413;49.878;8.142;2022-07-29T11:29:21;99718.66;;;35.25;nan
66560;BME280;53413;49.878;8.142;2022-07-29T11:31:51;99720.91;;;35.47;nan
66560;BME280;53413;49.878;8.142;2022-07-29T11:34:27;99718.97;;;35.97;nan
66560;BME280;53413;49.878;8.142;2022-07-29T11:39:35;99716.88;;;36.82;nan
66560;BME280;53413;49.878;8.142;2022-07-29T11:47:33;99707.53;;;36.54;nan
66560;BME280;53413;49.878;8.142;2022-07-29T11:50:00;99710.47;;;36.41;nan
66560;BME280;53413;49.878;8.142;2022-07-29T11:52:34;99713.53;;;36.20;nan
66560;BME280;53413;49.878;8.142;2022-07-29T11:55:03;99718.34;;;35.52;nan
66560;BME280;53413;49.878;8.142;2022-07-29T11:57:30;99708.22;;;35.22;nan
66560;BME280;53413;49.878;8.142;2022-07-29T11:59:57;99713.28;;;35.19;nan
66560;BME280;53413;49.878;8.142;2022-07-29T12:02:23;99704.28;;;35.18;nan
66560;BME280;53413;49.878;8.142;2022-07-29T12:04:56;99702.47;;;35.12;nan
66560;BME280;53413;49.878;8.142;2022-07-29T12:07:34;99697.78;;;35.01;nan
66560;BME280;53413;49.878;8.142;2022-07-29T12:09:59;99691.38;;;34.95;nan
66560;BME280;53413;49.878;8.142;2022-07-29T12:12:25;99688.66;;;34.95;nan
66560;BME280;53413;49.878;8.142;2022-07-29T12:14:51;99691.66;;;34.87;nan
66560;BME280;53413;49.878;8.142;2022-07-29T12:17:28;99678.72;;;34.82;nan
66560;BME280;53413;49.878;8.142;2022-07-29T12:19:54;99686.72;;;34.77;nan
66560;BME280;53413;49.878;8.142;2022-07-29T12:22:28;99688.84;;;34.56;nan
66560;BME280;53413;49.878;8.142;2022-07-29T12:24:54;99675.91;;;34.51;nan
66560;BME280;53413;49.878;8.142;2022-07-29T12:27:20;99675.06;;;34.51;nan
66560;BME280;53413;49.878;8.142;2022-07-29T12:29:56;99685.56;;;34.47;nan
66560;BME280;53413;49.878;8.142;2022-07-29T12:32:23;99681.00;;;34.41;nan
66560;BME280;53413;49.878;8.142;2022-07-29T12:34:49;99676.41;;;34.42;nan
66560;BME280;53413;49.878;8.142;2022-07-29T12:37:16;99671.38;;;34.38;nan
66560;BME280;53413;49.878;8.142;2022-07-29T12:39:41;99670.16;;;34.34;nan
66560;BME280;53413;49.878;8.142;2022-07-29T12:42:14;99672.31;;;34.32;nan
66560;BME280;53413;49.878;8.142;2022-07-29T12:44:47;99667.81;;;34.19;nan
66560;BME280;53413;49.878;8.142;2022-07-29T12:47:14;99660.69;;;34.18;nan
66560;BME280;53413;49.878;8.142;2022-07-29T12:49:39;99665.03;;;34.01;nan
66560;BME280;53413;49.878;8.142;2022-07-29T12:54:50;99651.50;;;33.94;nan
66560;BME280;53413;49.878;8.142;2022-07-29T12:57:15;99661.31;;;33.95;nan
66560;BME280;53413;49.878;8.142;2022-07-29T12:59:41;99660.53;;;33.88;nan
66560;BME280;53413;49.878;8.142;2022-07-29T13:02:06;99654.16;;;34.01;nan
66560;BME280;53413;49.878;8.142;2022-07-29T13:04:33;99660.94;;;34.17;nan
66560;BME280;53413;49.878;8.142;2022-07-29T13:07:05;99654.75;;;34.28;nan
66560;BME280;53413;49.878;8.142;2022-07-29T13:09:40;99651.44;;;34.51;nan
66560;BME280;53413;49.878;8.142;2022-07-29T13:12:08;99649.16;;;34.67;nan
66560;BME280;53413;49.878;8.142;2022-07-29T13:14:43;99654.53;;;34.55;nan
66560;BME280;53413;49.878;8.142;2022-07-29T13:19:46;99651.75;;;34.36;nan
66560;BME280;53413;49.878;8.142;2022-07-29T13:22:22;99654.31;;;34.31;nan
66560;BME280;53413;49.878;8.142;2022-07-29T13:24:53;99645.59;;;34.22;nan
66560;BME280;53413;49.878;8.142;2022-07-29T13:27:21;99645.38;;;34.24;nan
66560;BME280;53413;49.878;8.142;2022-07-29T13:29:47;99644.06;;;34.33;nan
66560;BME280;53413;49.878;8.142;2022-07-29T13:32:13;99643.53;;;34.43;nan
66560;BME280;53413;49.878;8.142;2022-07-29T13:34:39;99641.28;;;34.59;nan
66560;BME280;53413;49.878;8.142;2022-07-29T13:37:05;99646.97;;;34.94;nan
66560;BME280;53413;49.878;8.142;2022-07-29T13:39:30;99643.97;;;35.33;nan
66560;BME280;53413;49.878;8.142;2022-07-29T13:41:55;99649.03;;;35.29;nan
66560;BME280;53413;49.878;8.142;2022-07-29T13:44:21;99645.66;;;35.16;nan
66560;BME280;53413;49.878;8.142;2022-07-29T13:46:46;99650.41;;;35.20;nan
66560;BME280;53413;49.878;8.142;2022-07-29T13:49:12;99648.16;;;35.17;nan
66560;BME280;53413;49.878;8.142;2022-07-29T13:51:37;99655.03;;;35.20;nan
66560;BME280;53413;49.878;8.142;2022-07-29T13:54:03;99657.94;;;35.37;nan
66560;BME280;53413;49.878;8.142;2022-07-29T13:56:29;99652.94;;;35.52;nan
66560;BME280;53413;49.878;8.142;2022-07-29T13:58:54;99653.94;;;35.82;nan
66560;BME280;53413;49.878;8.142;2022-07-29T14:01:20;99651.88;;;35.96;nan
66560;BME280;53413;49.878;8.142;2022-07-29T14:03:45;99647.00;;;36.10;nan
66560;BME280;53413;49.878;8.142;2022-07-29T14:06:10;99646.06;;;36.16;nan